sensor_id;sensor_type;location;lat;lon;timestamp;P1;durP1;ratioP1;P2;durP2;ratioP2
63008;SDS011;49099;28.428;-16.488;2023-01-01T00:01:44;33.92;;;6.05;;
63008;SDS011;49099;28.428;-16.488;2023-01-01T00:04:12;26.67;;;5.22;;
63008;SDS011;49099;28.428;-16.488;2023-01-01T00:06:41;39.05;;;6.15;;
63008;SDS011;49099;28.428;-16.488;2023-01-01T00:09:09;37.63;;;6.97;;
63008;SDS011;49099;28.428;-16.488;2023-01-01T00:11:54;43.15;;;7.32;;
63008;SDS011;49099;28.428;-16.488;2023-01-01T00:14:21;44.40;;;16.10;;
63008;SDS011;49099;28.428;-16.488;2023-01-01T00:16:48;46.08;;;17.20;;
63008;SDS011;49099;28.428;-16.488;2023-01-01T00:19:15;50.33;;;16.77;;
63008;SDS011;49099;28.428;-16.488;2023-01-01T00:21:42;43.08;;;14.25;;
63008;SDS011;49099;28.428;-16.488;2023-01-01T00:24:12;43.10;;;12.15;;
63008;SDS011;49099;28.428;-16.488;2023-01-01T00:26:39;43.65;;;10.18;;
63008;SDS011;49099;28.428;-16.488;2023-01-01T00:29:06;34.35;;;8.48;;
63008;SDS011;49099;28.428;-16.488;2023-01-01T00:31:33;35.78;;;8.63;;
63008;SDS011;49099;28.428;-16.488;2023-01-01T00:34:00;34.88;;;8.48;;
63008;SDS011;49099;28.428;-16.488;2023-01-01T00:36:27;31.63;;;7.32;;
63008;SDS011;49099;28.428;-16.488;2023-01-01T00:38:55;40.15;;;8.15;;
63008;SDS011;49099;28.428;-16.488;2023-01-01T00:41:22;33.90;;;7.30;;
63008;SDS011;49099;28.428;-16.488;2023-01-01T00:43:50;29.35;;;7.00;;
63008;SDS011;49099;28.428;-16.488;2023-01-01T00:46:17;33.33;;;7.13;;
63008;SDS011;49099;28.428;-16.488;2023-01-01T00:48:44;35.85;;;7.45;;
63008;SDS011;49099;28.428;-16.488;2023-01-01T00:51:11;34.42;;;5.78;;
63008;SDS011;49099;28.428;-16.488;2023-01-01T00:53:39;33.47;;;5.50;;
63008;SDS011;49099;28.428;-16.488;2023-01-01T00:56:06;26.00;;;4.47;;
63008;SDS011;49099;28.428;-16.488;2023-01-01T00:58:33;25.90;;;4.85;;
63008;SDS011;49099;28.428;-16.488;2023-01-01T01:01:01;30.35;;;5.18;;
63008;SDS011;49099;28.428;-16.488;2023-01-01T01:03:28;35.17;;;4.82;;
63008;SDS011;49099;28.428;-16.488;2023-01-01T01:05:57;35.63;;;5.47;;
63008;SDS011;49099;28.428;-16.488;2023-01-01T01:08:25;34.05;;;5.13;;
63008;SDS011;49099;28.428;-16.488;2023-01-01T01:13:41;28.63;;;5.10;;
63008;SDS011;49099;28.428;-16.488;2023-01-01T01:16:16;26.92;;;5.47;;
63008;SDS011;49099;28.428;-16.488;2023-01-01T01:18:44;30.23;;;4.88;;
63008;SDS011;49099;28.428;-16.488;2023-01-01T01:21:16;32.78;;;5.70;;
63008;SDS011;49099;28.428;-16.488;2023-01-01T01:23:44;33.95;;;5.53;;
63008;SDS011;49099;28.428;-16.488;2023-01-01T01:26:18;34.65;;;5.28;;
63008;SDS011;49099;28.428;-16.488;2023-01-01T01:28:48;35.30;;;5.75;;
63008;SDS011;49099;28.428;-16.488;2023-01-01T01:31:19;28.38;;;4.30;;
63008;SDS011;49099;28.428;-16.488;2023-01-01T01:33:47;37.17;;;5.43;;
63008;SDS011;49099;28.428;-16.488;2023-01-01T01:36:16;36.42;;;5.53;;
63008;SDS011;49099;28.428;-16.488;2023-01-01T01:38:44;36.45;;;5.97;;
63008;SDS011;49099;28.428;-16.488;2023-01-01T01:41:12;39.05;;;4.93;;
63008;SDS011;49099;28.428;-16.488;2023-01-01T01:49:15;28.58;;;5.03;;
63008;SDS011;49099;28.428;-16.488;2023-01-01T01:51:47;32.30;;;5.32;;
63008;SDS011;49099;28.428;-16.488;2023-01-01T01:54:16;36.58;;;4.97;;
63008;SDS011;49099;28.428;-16.488;2023-01-01T01:56:49;27.98;;;4.85;;
63008;SDS011;49099;28.428;-16.488;2023-01-01T01:59:29;31.02;;;4.97;;
63008;SDS011;49099;28.428;-16.488;2023-01-01T02:02:00;28.50;;;5.03;;
63008;SDS011;49099;28.428;-16.488;2023-01-01T02:04:28;23.15;;;4.40;;
63008;SDS011;49099;28.428;-16.488;2023-01-01T02:06:55;33.42;;;5.35;;
63008;SDS011;49099;28.428;-16.488;2023-01-01T02:09:22;32.17;;;5.47;;
63008;SDS011;49099;28.428;-16.488;2023-01-01T02:11:50;38.88;;;5.43;;
63008;SDS011;49099;28.428;-16.488;2023-01-01T02:14:17;32.92;;;5.30;;
63008;SDS011;49099;28.428;-16.488;2023-01-01T02:28:42;31.55;;;4.30;;
63008;SDS011;49099;28.428;-16.488;2023-01-01T02:30:51;33.13;;;4.75;;
63008;SDS011;49099;28.428;-16.488;2023-01-01T02:33:22;31.23;;;4.97;;
63008;SDS011;49099;28.428;-16.488;2023-01-01T02:35:53;29.50;;;5.28;;
63008;SDS011;49099;28.428;-16.488;2023-01-01T02:38:38;33.55;;;4.03;;
63008;SDS011;49099;28.428;-16.488;2023-01-01T02:43:47;36.25;;;4.68;;
63008;SDS011;49099;28.428;-16.488;2023-01-01T02:46:14;35.42;;;5.18;;
63008;SDS011;49099;28.428;-16.488;2023-01-01T02:48:44;29.08;;;4.97;;
63008;SDS011;49099;28.428;-16.488;2023-01-01T03:04:56;33.93;;;5.03;;
63008;SDS011;49099;28.428;-16.488;2023-01-01T03:07:46;42.28;;;5.47;;
63008;SDS011;49099;28.428;-16.488;2023-01-01T03:10:32;29.98;;;4.85;;
63008;SDS011;49099;28.428;-16.488;2023-01-01T03:13:19;32.70;;;4.97;;
63008;SDS011;49099;28.428;-16.488;2023-01-01T03:15:59;26.10;;;4.72;;
63008;SDS011;49099;28.428;-16.488;2023-01-01T03:18:42;29.67;;;4.90;;
63008;SDS011;49099;28.428;-16.488;2023-01-01T03:21:10;31.45;;;4.88;;
63008;SDS011;49099;28.428;-16.488;2023-01-01T03:23:41;35.38;;;5.32;;
63008;SDS011;49099;28.428;-16.488;2023-01-01T03:26:15;36.60;;;5.75;;
63008;SDS011;49099;28.428;-16.488;2023-01-01T03:28:45;31.05;;;4.50;;
63008;SDS011;49099;28.428;-16.488;2023-01-01T03:31:18;29.35;;;4.55;;
63008;SDS011;49099;28.428;-16.488;2023-01-01T03:33:48;30.15;;;4.88;;
63008;SDS011;49099;28.428;-16.488;2023-01-01T03:36:23;33.45;;;4.82;;
63008;SDS011;49099;28.428;-16.488;2023-01-01T03:38:59;29.70;;;5.18;;
63008;SDS011;49099;28.428;-16.488;2023-01-01T03:41:33;29.55;;;5.07;;
63008;SDS011;49099;28.428;-16.488;2023-01-01T03:44:23;37.83;;;5.13;;
63008;SDS011;49099;28.428;-16.488;2023-01-01T03:46:58;27.90;;;4.93;;
63008;SDS011;49099;28.428;-16.488;2023-01-01T03:49:25;33.55;;;4.80;;
63008;SDS011;49099;28.428;-16.488;2023-01-01T03:54:52;25.98;;;4.93;;
63008;SDS011;49099;28.428;-16.488;2023-01-01T03:57:38;24.20;;;4.45;;
63008;SDS011;49099;28.428;-16.488;2023-01-01T04:00:10;34.08;;;4.88;;
63008;SDS011;49099;28.428;-16.488;2023-01-01T04:07:44;27.95;;;4.85;;
63008;SDS011;49099;28.428;-16.488;2023-01-01T04:10:11;30.33;;;4.50;;
63008;SDS011;49099;28.428;-16.488;2023-01-01T04:12:45;25.98;;;4.97;;
63008;SDS011;49099;28.428;-16.488;2023-01-01T04:15:17;30.85;;;4.55;;
63008;SDS011;49099;28.428;-16.488;2023-01-01T04:17:45;30.67;;;5.38;;
63008;SDS011;49099;28.428;-16.488;2023-01-01T04:20:13;26.83;;;4.65;;
63008;SDS011;49099;28.428;-16.488;2023-01-01T04:22:40;26.08;;;4.47;;
63008;SDS011;49099;28.428;-16.488;2023-01-01T04:25:07;33.13;;;4.72;;
63008;SDS011;49099;28.428;-16.488;2023-01-01T04:27:35;33.00;;;5.45;;
63008;SDS011;49099;28.428;-16.488;2023-01-01T04:30:03;29.52;;;4.80;;
63008;SDS011;49099;28.428;-16.488;2023-01-01T04:32:32;40.17;;;5.85;;
63008;SDS011;49099;28.428;-16.488;2023-01-01T04:34:59;31.52;;;4.90;;
63008;SDS011;49099;28.428;-16.488;2023-01-01T04:37:27;22.67;;;4.32;;
63008;SDS011;49099;28.428;-16.488;2023-01-01T04:39:54;28.77;;;5.00;;
63008;SDS011;49099;28.428;-16.488;2023-01-01T04:42:21;35.05;;;5.00;;
63008;SDS011;49099;28.428;-16.488;2023-01-01T04:44:48;37.05;;;4.95;;
63008;SDS011;49099;28.428;-16.488;2023-01-01T04:47:15;41.83;;;5.25;;
63008;SDS011;49099;28.428;-16.488;2023-01-01T04:49:42;27.42;;;4.78;;
63008;SDS011;49099;28.428;-16.488;2023-01-01T04:52:09;30.70;;;5.45;;
63008;SDS011;49099;28.428;-16.488;2023-01-01T04:54:36;32.70;;;5.30;;
63008;SDS011;49099;28.428;-16.488;2023-01-01T04:57:03;33.13;;;4.95;;
63008;SDS011;49099;28.428;-16.488;2023-01-01T04:59:31;29.92;;;4.18;;
63008;SDS011;49099;28.428;-16.488;2023-01-01T05:01:58;31.50;;;4.80;;
63008;SDS011;49099;28.428;-16.488;2023-01-01T05:04:25;24.67;;;4.60;;
63008;SDS011;49099;28.428;-16.488;2023-01-01T05:06:52;30.83;;;4.90;;
63008;SDS011;49099;28.428;-16.488;2023-01-01T05:09:19;32.13;;;4.95;;
63008;SDS011;49099;28.428;-16.488;2023-01-01T05:11:46;28.48;;;4.10;;
63008;SDS011;49099;28.428;-16.488;2023-01-01T05:14:14;27.10;;;4.72;;
63008;SDS011;49099;28.428;-16.488;2023-01-01T05:16:41;26.65;;;4.68;;
63008;SDS011;49099;28.428;-16.488;2023-01-01T05:19:08;26.98;;;4.68;;
63008;SDS011;49099;28.428;-16.488;2023-01-01T05:21:37;33.15;;;5.32;;
63008;SDS011;49099;28.428;-16.488;2023-01-01T05:24:06;34.70;;;5.88;;
63008;SDS011;49099;28.428;-16.488;2023-01-01T05:26:36;34.08;;;4.72;;
63008;SDS011;49099;28.428;-16.488;2023-01-01T05:29:06;38.72;;;5.05;;
63008;SDS011;49099;28.428;-16.488;2023-01-01T05:31:42;37.85;;;6.00;;
63008;SDS011;49099;28.428;-16.488;2023-01-01T05:34:10;29.23;;;4.68;;
63008;SDS011;49099;28.428;-16.488;2023-01-01T05:36:37;25.25;;;4.57;;
63008;SDS011;49099;28.428;-16.488;2023-01-01T05:39:05;30.40;;;5.13;;
63008;SDS011;49099;28.428;-16.488;2023-01-01T05:41:33;26.80;;;4.35;;
63008;SDS011;49099;28.428;-16.488;2023-01-01T05:44:03;30.20;;;4.40;;
63008;SDS011;49099;28.428;-16.488;2023-01-01T05:46:31;28.13;;;5.38;;
63008;SDS011;49099;28.428;-16.488;2023-01-01T05:48:59;30.13;;;4.93;;
63008;SDS011;49099;28.428;-16.488;2023-01-01T05:51:27;34.85;;;5.30;;
63008;SDS011;49099;28.428;-16.488;2023-01-01T05:53:55;28.92;;;4.28;;
63008;SDS011;49099;28.428;-16.488;2023-01-01T05:56:24;32.20;;;4.63;;
63008;SDS011;49099;28.428;-16.488;2023-01-01T05:58:52;36.28;;;5.57;;
63008;SDS011;49099;28.428;-16.488;2023-01-01T06:01:24;29.35;;;5.10;;
63008;SDS011;49099;28.428;-16.488;2023-01-01T06:03:53;34.78;;;4.43;;
63008;SDS011;49099;28.428;-16.488;2023-01-01T06:06:22;33.63;;;4.88;;
63008;SDS011;49099;28.428;-16.488;2023-01-01T06:08:51;23.10;;;4.07;;
63008;SDS011;49099;28.428;-16.488;2023-01-01T06:11:20;34.72;;;5.07;;
63008;SDS011;49099;28.428;-16.488;2023-01-01T06:13:47;31.13;;;4.97;;
63008;SDS011;49099;28.428;-16.488;2023-01-01T06:16:17;35.90;;;5.32;;
63008;SDS011;49099;28.428;-16.488;2023-01-01T06:18:45;34.58;;;5.30;;
63008;SDS011;49099;28.428;-16.488;2023-01-01T06:21:13;35.10;;;5.57;;
63008;SDS011;49099;28.428;-16.488;2023-01-01T06:23:42;36.90;;;5.47;;
63008;SDS011;49099;28.428;-16.488;2023-01-01T06:26:10;33.15;;;5.15;;
63008;SDS011;49099;28.428;-16.488;2023-01-01T06:28:39;29.52;;;5.78;;
63008;SDS011;49099;28.428;-16.488;2023-01-01T06:31:08;29.65;;;4.95;;
63008;SDS011;49099;28.428;-16.488;2023-01-01T06:33:36;26.92;;;5.15;;
63008;SDS011;49099;28.428;-16.488;2023-01-01T06:36:06;28.52;;;4.85;;
63008;SDS011;49099;28.428;-16.488;2023-01-01T06:38:35;26.60;;;4.72;;
63008;SDS011;49099;28.428;-16.488;2023-01-01T06:41:04;26.25;;;5.43;;
63008;SDS011;49099;28.428;-16.488;2023-01-01T06:43:34;33.22;;;5.57;;
63008;SDS011;49099;28.428;-16.488;2023-01-01T06:48:53;40.05;;;5.80;;
63008;SDS011;49099;28.428;-16.488;2023-01-01T06:51:26;30.27;;;4.57;;
63008;SDS011;49099;28.428;-16.488;2023-01-01T06:53:58;34.20;;;5.65;;
63008;SDS011;49099;28.428;-16.488;2023-01-01T06:56:26;30.55;;;5.25;;
63008;SDS011;49099;28.428;-16.488;2023-01-01T06:58:54;28.52;;;5.28;;
63008;SDS011;49099;28.428;-16.488;2023-01-01T07:01:23;35.17;;;5.60;;
63008;SDS011;49099;28.428;-16.488;2023-01-01T07:03:58;34.22;;;5.57;;
63008;SDS011;49099;28.428;-16.488;2023-01-01T07:06:27;31.38;;;5.07;;
63008;SDS011;49099;28.428;-16.488;2023-01-01T07:08:56;35.30;;;5.75;;
63008;SDS011;49099;28.428;-16.488;2023-01-01T07:11:24;33.65;;;5.40;;
63008;SDS011;49099;28.428;-16.488;2023-01-01T07:13:51;30.38;;;4.97;;
63008;SDS011;49099;28.428;-16.488;2023-01-01T07:16:19;34.72;;;5.10;;
63008;SDS011;49099;28.428;-16.488;2023-01-01T07:18:47;31.73;;;5.85;;
63008;SDS011;49099;28.428;-16.488;2023-01-01T07:21:30;31.77;;;5.28;;
63008;SDS011;49099;28.428;-16.488;2023-01-01T07:24:00;33.97;;;5.13;;
63008;SDS011;49099;28.428;-16.488;2023-01-01T07:26:29;35.75;;;5.47;;
63008;SDS011;49099;28.428;-16.488;2023-01-01T07:28:57;36.47;;;5.72;;
63008;SDS011;49099;28.428;-16.488;2023-01-01T07:31:37;27.80;;;4.72;;
63008;SDS011;49099;28.428;-16.488;2023-01-01T07:34:06;26.48;;;5.07;;
63008;SDS011;49099;28.428;-16.488;2023-01-01T07:36:35;30.98;;;5.05;;
63008;SDS011;49099;28.428;-16.488;2023-01-01T07:39:02;28.02;;;4.60;;
63008;SDS011;49099;28.428;-16.488;2023-01-01T07:41:29;35.63;;;5.30;;
63008;SDS011;49099;28.428;-16.488;2023-01-01T07:43:57;31.55;;;5.78;;
63008;SDS011;49099;28.428;-16.488;2023-01-01T07:46:24;29.77;;;5.13;;
63008;SDS011;49099;28.428;-16.488;2023-01-01T07:48:51;33.60;;;5.22;;
63008;SDS011;49099;28.428;-16.488;2023-01-01T07:51:18;35.47;;;5.80;;
63008;SDS011;49099;28.428;-16.488;2023-01-01T07:53:45;27.40;;;4.85;;
63008;SDS011;49099;28.428;-16.488;2023-01-01T07:56:12;33.70;;;4.85;;
63008;SDS011;49099;28.428;-16.488;2023-01-01T07:58:40;33.78;;;5.10;;
63008;SDS011;49099;28.428;-16.488;2023-01-01T08:01:10;30.77;;;5.53;;
63008;SDS011;49099;28.428;-16.488;2023-01-01T08:03:39;31.02;;;5.25;;
63008;SDS011;49099;28.428;-16.488;2023-01-01T08:06:07;26.52;;;4.80;;
63008;SDS011;49099;28.428;-16.488;2023-01-01T08:08:35;35.15;;;5.30;;
63008;SDS011;49099;28.428;-16.488;2023-01-01T08:11:02;35.80;;;5.57;;
63008;SDS011;49099;28.428;-16.488;2023-01-01T08:13:30;32.10;;;5.28;;
63008;SDS011;49099;28.428;-16.488;2023-01-01T08:15:57;31.52;;;5.18;;
63008;SDS011;49099;28.428;-16.488;2023-01-01T08:18:25;37.00;;;5.55;;
63008;SDS011;49099;28.428;-16.488;2023-01-01T08:20:52;29.00;;;4.85;;
63008;SDS011;49099;28.428;-16.488;2023-01-01T08:23:19;25.38;;;4.45;;
63008;SDS011;49099;28.428;-16.488;2023-01-01T08:25:46;31.58;;;4.93;;
63008;SDS011;49099;28.428;-16.488;2023-01-01T08:28:14;29.92;;;5.90;;
63008;SDS011;49099;28.428;-16.488;2023-01-01T08:30:41;26.85;;;4.90;;
63008;SDS011;49099;28.428;-16.488;2023-01-01T08:33:08;35.47;;;5.85;;
63008;SDS011;49099;28.428;-16.488;2023-01-01T08:35:36;30.33;;;5.35;;
63008;SDS011;49099;28.428;-16.488;2023-01-01T08:38:05;26.42;;;5.05;;
63008;SDS011;49099;28.428;-16.488;2023-01-01T08:40:32;34.20;;;5.50;;
63008;SDS011;49099;28.428;-16.488;2023-01-01T08:42:59;38.17;;;5.95;;
63008;SDS011;49099;28.428;-16.488;2023-01-01T08:45:27;35.10;;;5.15;;
63008;SDS011;49099;28.428;-16.488;2023-01-01T08:47:54;34.20;;;5.28;;
63008;SDS011;49099;28.428;-16.488;2023-01-01T08:50:21;36.15;;;5.68;;
63008;SDS011;49099;28.428;-16.488;2023-01-01T08:52:48;25.70;;;5.15;;
63008;SDS011;49099;28.428;-16.488;2023-01-01T08:55:15;25.52;;;4.82;;
63008;SDS011;49099;28.428;-16.488;2023-01-01T08:57:42;38.03;;;5.15;;
63008;SDS011;49099;28.428;-16.488;2023-01-01T09:00:09;24.48;;;5.03;;
63008;SDS011;49099;28.428;-16.488;2023-01-01T09:02:39;28.88;;;5.00;;
63008;SDS011;49099;28.428;-16.488;2023-01-01T09:05:06;37.95;;;5.93;;
63008;SDS011;49099;28.428;-16.488;2023-01-01T09:07:33;32.45;;;6.00;;
63008;SDS011;49099;28.428;-16.488;2023-01-01T09:10:01;33.90;;;6.05;;
63008;SDS011;49099;28.428;-16.488;2023-01-01T09:12:28;34.40;;;5.18;;
63008;SDS011;49099;28.428;-16.488;2023-01-01T09:14:55;32.22;;;5.20;;
63008;SDS011;49099;28.428;-16.488;2023-01-01T09:17:22;26.45;;;5.18;;
63008;SDS011;49099;28.428;-16.488;2023-01-01T09:19:50;29.73;;;5.68;;
63008;SDS011;49099;28.428;-16.488;2023-01-01T09:22:17;32.28;;;5.47;;
63008;SDS011;49099;28.428;-16.488;2023-01-01T09:24:44;27.38;;;4.82;;
63008;SDS011;49099;28.428;-16.488;2023-01-01T09:27:11;29.33;;;5.68;;
63008;SDS011;49099;28.428;-16.488;2023-01-01T09:29:38;29.92;;;5.53;;
63008;SDS011;49099;28.428;-16.488;2023-01-01T09:32:05;37.70;;;6.18;;
63008;SDS011;49099;28.428;-16.488;2023-01-01T09:34:32;24.92;;;4.70;;
63008;SDS011;49099;28.428;-16.488;2023-01-01T09:36:59;31.27;;;7.45;;
63008;SDS011;49099;28.428;-16.488;2023-01-01T09:39:26;31.33;;;5.78;;
63008;SDS011;49099;28.428;-16.488;2023-01-01T09:45:01;22.50;;;5.10;;
63008;SDS011;49099;28.428;-16.488;2023-01-01T09:47:34;35.38;;;5.43;;
63008;SDS011;49099;28.428;-16.488;2023-01-01T09:50:11;39.80;;;5.97;;
63008;SDS011;49099;28.428;-16.488;2023-01-01T09:52:45;29.38;;;5.80;;
63008;SDS011;49099;28.428;-16.488;2023-01-01T09:55:37;38.65;;;5.43;;
63008;SDS011;49099;28.428;-16.488;2023-01-01T09:58:12;31.60;;;5.40;;
63008;SDS011;49099;28.428;-16.488;2023-01-01T10:00:41;28.23;;;5.35;;
63008;SDS011;49099;28.428;-16.488;2023-01-01T10:09:08;39.47;;;5.82;;
63008;SDS011;49099;28.428;-16.488;2023-01-01T10:14:30;30.52;;;5.57;;
63008;SDS011;49099;28.428;-16.488;2023-01-01T10:17:02;29.08;;;5.47;;
63008;SDS011;49099;28.428;-16.488;2023-01-01T10:19:42;33.38;;;5.53;;
63008;SDS011;49099;28.428;-16.488;2023-01-01T10:22:21;35.38;;;5.93;;
63008;SDS011;49099;28.428;-16.488;2023-01-01T10:24:57;38.47;;;6.00;;
63008;SDS011;49099;28.428;-16.488;2023-01-01T10:27:30;32.33;;;5.10;;
63008;SDS011;49099;28.428;-16.488;2023-01-01T10:30:02;36.05;;;5.70;;
63008;SDS011;49099;28.428;-16.488;2023-01-01T10:32:38;36.75;;;5.68;;
63008;SDS011;49099;28.428;-16.488;2023-01-01T10:35:11;32.30;;;5.22;;
63008;SDS011;49099;28.428;-16.488;2023-01-01T10:37:40;28.30;;;4.97;;
63008;SDS011;49099;28.428;-16.488;2023-01-01T10:40:21;35.20;;;5.40;;
63008;SDS011;49099;28.428;-16.488;2023-01-01T10:43:00;42.90;;;6.55;;
63008;SDS011;49099;28.428;-16.488;2023-01-01T10:48:09;33.97;;;5.95;;
63008;SDS011;49099;28.428;-16.488;2023-01-01T10:58:43;33.20;;;5.90;;
63008;SDS011;49099;28.428;-16.488;2023-01-01T11:01:11;37.38;;;6.05;;
63008;SDS011;49099;28.428;-16.488;2023-01-01T11:04:00;36.60;;;5.70;;
63008;SDS011;49099;28.428;-16.488;2023-01-01T11:06:35;32.30;;;5.18;;
63008;SDS011;49099;28.428;-16.488;2023-01-01T11:09:05;41.33;;;5.50;;
63008;SDS011;49099;28.428;-16.488;2023-01-01T11:11:59;38.67;;;5.95;;
63008;SDS011;49099;28.428;-16.488;2023-01-01T11:15:03;44.40;;;6.97;;
63008;SDS011;49099;28.428;-16.488;2023-01-01T11:17:33;43.80;;;6.95;;
63008;SDS011;49099;28.428;-16.488;2023-01-01T11:20:02;37.72;;;5.95;;
63008;SDS011;49099;28.428;-16.488;2023-01-01T11:22:35;41.47;;;6.35;;
63008;SDS011;49099;28.428;-16.488;2023-01-01T11:25:09;62.38;;;8.98;;
63008;SDS011;49099;28.428;-16.488;2023-01-01T11:33:28;47.80;;;7.68;;
63008;SDS011;49099;28.428;-16.488;2023-01-01T11:35:57;48.67;;;7.82;;
63008;SDS011;49099;28.428;-16.488;2023-01-01T11:38:24;48.15;;;7.82;;
63008;SDS011;49099;28.428;-16.488;2023-01-01T11:40:56;44.85;;;6.55;;
63008;SDS011;49099;28.428;-16.488;2023-01-01T11:43:32;31.85;;;6.55;;
63008;SDS011;49099;28.428;-16.488;2023-01-01T11:46:08;49.53;;;6.35;;
63008;SDS011;49099;28.428;-16.488;2023-01-01T11:48:40;50.03;;;7.07;;
63008;SDS011;49099;28.428;-16.488;2023-01-01T11:51:10;44.22;;;6.07;;
63008;SDS011;49099;28.428;-16.488;2023-01-01T11:54:20;40.75;;;6.60;;
63008;SDS011;49099;28.428;-16.488;2023-01-01T11:56:48;30.80;;;5.85;;
63008;SDS011;49099;28.428;-16.488;2023-01-01T11:59:20;36.63;;;5.63;;
63008;SDS011;49099;28.428;-16.488;2023-01-01T12:01:53;31.83;;;5.80;;
63008;SDS011;49099;28.428;-16.488;2023-01-01T12:04:28;48.58;;;8.13;;
63008;SDS011;49099;28.428;-16.488;2023-01-01T12:07:06;55.60;;;9.25;;
63008;SDS011;49099;28.428;-16.488;2023-01-01T12:09:42;50.78;;;8.20;;
63008;SDS011;49099;28.428;-16.488;2023-01-01T12:12:23;58.97;;;9.80;;
63008;SDS011;49099;28.428;-16.488;2023-01-01T12:15:29;57.35;;;8.43;;
63008;SDS011;49099;28.428;-16.488;2023-01-01T12:18:21;57.08;;;9.27;;
63008;SDS011;49099;28.428;-16.488;2023-01-01T12:20:56;61.20;;;9.20;;
63008;SDS011;49099;28.428;-16.488;2023-01-01T12:23:24;47.15;;;8.23;;
63008;SDS011;49099;28.428;-16.488;2023-01-01T12:26:12;56.20;;;8.57;;
63008;SDS011;49099;28.428;-16.488;2023-01-01T12:28:45;51.20;;;8.75;;
63008;SDS011;49099;28.428;-16.488;2023-01-01T12:31:46;47.97;;;7.68;;
63008;SDS011;49099;28.428;-16.488;2023-01-01T12:37:33;49.70;;;7.30;;
63008;SDS011;49099;28.428;-16.488;2023-01-01T13:00:04;53.30;;;8.43;;
63008;SDS011;49099;28.428;-16.488;2023-01-01T13:02:42;49.05;;;7.55;;
63008;SDS011;49099;28.428;-16.488;2023-01-01T13:05:59;43.00;;;7.10;;
63008;SDS011;49099;28.428;-16.488;2023-01-01T13:08:20;41.22;;;7.25;;
63008;SDS011;49099;28.428;-16.488;2023-01-01T13:10:49;56.78;;;9.18;;
63008;SDS011;49099;28.428;-16.488;2023-01-01T13:13:18;53.03;;;7.90;;
63008;SDS011;49099;28.428;-16.488;2023-01-01T13:15:47;44.28;;;7.35;;
63008;SDS011;49099;28.428;-16.488;2023-01-01T13:18:17;38.15;;;7.45;;
63008;SDS011;49099;28.428;-16.488;2023-01-01T13:20:57;48.17;;;8.68;;
63008;SDS011;49099;28.428;-16.488;2023-01-01T13:43:03;47.28;;;8.02;;
63008;SDS011;49099;28.428;-16.488;2023-01-01T13:45:38;50.25;;;7.85;;
63008;SDS011;49099;28.428;-16.488;2023-01-01T13:48:37;43.10;;;7.80;;
63008;SDS011;49099;28.428;-16.488;2023-01-01T14:00:24;49.22;;;7.80;;
63008;SDS011;49099;28.428;-16.488;2023-01-01T14:03:15;44.35;;;7.63;;
63008;SDS011;49099;28.428;-16.488;2023-01-01T14:06:18;35.47;;;6.50;;
63008;SDS011;49099;28.428;-16.488;2023-01-01T14:08:37;36.72;;;6.22;;
63008;SDS011;49099;28.428;-16.488;2023-01-01T14:11:18;50.42;;;6.65;;
63008;SDS011;49099;28.428;-16.488;2023-01-01T14:13:47;38.30;;;6.15;;
63008;SDS011;49099;28.428;-16.488;2023-01-01T14:16:14;37.33;;;6.45;;
63008;SDS011;49099;28.428;-16.488;2023-01-01T14:18:48;38.85;;;7.72;;
63008;SDS011;49099;28.428;-16.488;2023-01-01T14:21:25;43.80;;;6.68;;
63008;SDS011;49099;28.428;-16.488;2023-01-01T14:24:01;45.72;;;6.50;;
63008;SDS011;49099;28.428;-16.488;2023-01-01T14:26:35;37.30;;;6.97;;
63008;SDS011;49099;28.428;-16.488;2023-01-01T14:29:08;40.63;;;6.65;;
63008;SDS011;49099;28.428;-16.488;2023-01-01T14:31:40;65.65;;;10.50;;
63008;SDS011;49099;28.428;-16.488;2023-01-01T14:36:55;61.97;;;8.95;;
63008;SDS011;49099;28.428;-16.488;2023-01-01T14:39:28;63.40;;;9.85;;
63008;SDS011;49099;28.428;-16.488;2023-01-01T14:41:57;65.05;;;9.02;;
63008;SDS011;49099;28.428;-16.488;2023-01-01T14:44:35;44.38;;;7.32;;
63008;SDS011;49099;28.428;-16.488;2023-01-01T14:47:08;52.30;;;7.60;;
63008;SDS011;49099;28.428;-16.488;2023-01-01T14:49:47;38.63;;;6.97;;
63008;SDS011;49099;28.428;-16.488;2023-01-01T14:52:25;40.70;;;6.85;;
63008;SDS011;49099;28.428;-16.488;2023-01-01T14:54:57;40.83;;;6.85;;
63008;SDS011;49099;28.428;-16.488;2023-01-01T14:57:26;59.50;;;8.40;;
63008;SDS011;49099;28.428;-16.488;2023-01-01T14:59:56;67.45;;;9.73;;
63008;SDS011;49099;28.428;-16.488;2023-01-01T15:02:24;55.58;;;9.13;;
63008;SDS011;49099;28.428;-16.488;2023-01-01T15:04:56;47.10;;;8.43;;
63008;SDS011;49099;28.428;-16.488;2023-01-01T15:07:28;47.22;;;6.75;;
63008;SDS011;49099;28.428;-16.488;2023-01-01T15:09:57;38.78;;;6.70;;
63008;SDS011;49099;28.428;-16.488;2023-01-01T15:12:27;48.25;;;7.38;;
63008;SDS011;49099;28.428;-16.488;2023-01-01T15:14:55;46.67;;;7.50;;
63008;SDS011;49099;28.428;-16.488;2023-01-01T15:17:24;47.80;;;8.88;;
63008;SDS011;49099;28.428;-16.488;2023-01-01T15:20:06;49.28;;;8.30;;
63008;SDS011;49099;28.428;-16.488;2023-01-01T15:22:49;51.35;;;7.57;;
63008;SDS011;49099;28.428;-16.488;2023-01-01T15:25:17;42.30;;;7.28;;
63008;SDS011;49099;28.428;-16.488;2023-01-01T15:27:49;36.33;;;6.28;;
63008;SDS011;49099;28.428;-16.488;2023-01-01T15:30:24;43.50;;;6.70;;
63008;SDS011;49099;28.428;-16.488;2023-01-01T15:32:53;37.13;;;6.30;;
63008;SDS011;49099;28.428;-16.488;2023-01-01T15:35:31;46.45;;;6.70;;
63008;SDS011;49099;28.428;-16.488;2023-01-01T15:38:00;30.50;;;5.60;;
63008;SDS011;49099;28.428;-16.488;2023-01-01T15:40:36;35.17;;;5.53;;
63008;SDS011;49099;28.428;-16.488;2023-01-01T15:46:10;29.88;;;6.25;;
63008;SDS011;49099;28.428;-16.488;2023-01-01T15:48:51;36.55;;;5.40;;
63008;SDS011;49099;28.428;-16.488;2023-01-01T15:51:21;47.40;;;6.88;;
63008;SDS011;49099;28.428;-16.488;2023-01-01T15:54:00;43.25;;;6.60;;
63008;SDS011;49099;28.428;-16.488;2023-01-01T15:56:31;40.20;;;6.90;;
63008;SDS011;49099;28.428;-16.488;2023-01-01T16:01:39;44.55;;;6.07;;
63008;SDS011;49099;28.428;-16.488;2023-01-01T16:06:51;38.67;;;6.72;;
63008;SDS011;49099;28.428;-16.488;2023-01-01T16:09:21;46.92;;;6.95;;
63008;SDS011;49099;28.428;-16.488;2023-01-01T16:11:51;35.88;;;5.90;;
63008;SDS011;49099;28.428;-16.488;2023-01-01T16:14:20;46.90;;;7.32;;
63008;SDS011;49099;28.428;-16.488;2023-01-01T16:16:49;32.65;;;6.00;;
63008;SDS011;49099;28.428;-16.488;2023-01-01T16:19:22;45.65;;;7.53;;
63008;SDS011;49099;28.428;-16.488;2023-01-01T16:21:50;44.58;;;6.40;;
63008;SDS011;49099;28.428;-16.488;2023-01-01T16:24:17;50.72;;;7.75;;
63008;SDS011;49099;28.428;-16.488;2023-01-01T16:26:46;57.90;;;9.02;;
63008;SDS011;49099;28.428;-16.488;2023-01-01T16:29:13;50.45;;;7.32;;
63008;SDS011;49099;28.428;-16.488;2023-01-01T16:31:41;47.47;;;7.38;;
63008;SDS011;49099;28.428;-16.488;2023-01-01T16:34:10;32.45;;;5.57;;
63008;SDS011;49099;28.428;-16.488;2023-01-01T16:36:39;42.05;;;6.28;;
63008;SDS011;49099;28.428;-16.488;2023-01-01T16:39:06;56.50;;;8.18;;
63008;SDS011;49099;28.428;-16.488;2023-01-01T16:41:34;39.70;;;6.68;;
63008;SDS011;49099;28.428;-16.488;2023-01-01T16:44:01;32.83;;;6.20;;
63008;SDS011;49099;28.428;-16.488;2023-01-01T16:46:28;48.60;;;6.55;;
63008;SDS011;49099;28.428;-16.488;2023-01-01T16:48:55;39.67;;;5.93;;
63008;SDS011;49099;28.428;-16.488;2023-01-01T16:51:24;38.78;;;6.63;;